sensor_id;sensor_type;location;lat;lon;timestamp;pressure;altitude;pressure_sealevel;temperature;humidity
50977;BME280;36992;48.200;12.418;2024-02-26T00:02:08;95095.00;;;7.86;51.18
50977;BME280;36992;48.200;12.418;2024-02-26T00:04:35;95083.31;;;7.81;51.61
50977;BME280;36992;48.200;12.418;2024-02-26T00:07:01;95079.81;;;7.81;51.45
50977;BME280;36992;48.200;12.418;2024-02-26T00:09:28;95079.38;;;7.79;51.90
50977;BME280;36992;48.200;12.418;2024-02-26T00:11:55;95074.00;;;7.79;51.66
50977;BME280;36992;48.200;12.418;2024-02-26T00:14:23;95075.13;;;7.78;51.71
50977;BME280;36992;48.200;12.418;2024-02-26T00:16:49;95065.50;;;7.77;51.41
50977;BME280;36992;48.200;12.418;2024-02-26T00:19:17;95070.06;;;7.76;51.62
50977;BME280;36992;48.200;12.418;2024-02-26T00:21:43;95071.47;;;7.74;51.51
50977;BME280;36992;48.200;12.418;2024-02-26T00:24:10;95065.66;;;7.72;51.50
50977;BME280;36992;48.200;12.418;2024-02-26T00:26:37;95062.16;;;7.71;51.55
50977;BME280;36992;48.200;12.418;2024-02-26T00:29:03;95065.94;;;7.70;51.60
50977;BME280;36992;48.200;12.418;2024-02-26T00:31:30;95068.63;;;7.70;50.98
50977;BME280;36992;48.200;12.418;2024-02-26T00:33:56;95067.38;;;7.67;51.00
50977;BME280;36992;48.200;12.418;2024-02-26T00:36:24;95067.66;;;7.66;51.38
50977;BME280;36992;48.200;12.418;2024-02-26T00:38:50;95062.00;;;7.59;51.22
50977;BME280;36992;48.200;12.418;2024-02-26T00:41:17;95062.94;;;7.54;51.77
50977;BME280;36992;48.200;12.418;2024-02-26T00:43:44;95065.16;;;7.52;51.57
50977;BME280;36992;48.200;12.418;2024-02-26T00:46:10;95053.16;;;7.49;51.85
50977;BME280;36992;48.200;12.418;2024-02-26T00:48:37;95064.19;;;7.48;51.64
50977;BME280;36992;48.200;12.418;2024-02-26T00:51:04;95054.25;;;7.48;51.84
50977;BME280;36992;48.200;12.418;2024-02-26T00:53:33;95049.38;;;7.50;51.52
50977;BME280;36992;48.200;12.418;2024-02-26T00:55:59;95049.69;;;7.49;51.64
50977;BME280;36992;48.200;12.418;2024-02-26T00:58:26;95046.69;;;7.50;51.48
50977;BME280;36992;48.200;12.418;2024-02-26T01:00:53;95057.41;;;7.50;52.02
50977;BME280;36992;48.200;12.418;2024-02-26T01:03:20;95047.50;;;7.51;51.48
50977;BME280;36992;48.200;12.418;2024-02-26T01:05:47;95046.69;;;7.50;51.71
50977;BME280;36992;48.200;12.418;2024-02-26T01:08:13;95046.69;;;7.50;51.38
50977;BME280;36992;48.200;12.418;2024-02-26T01:10:41;95044.81;;;7.51;51.49
50977;BME280;36992;48.200;12.418;2024-02-26T01:13:08;95049.38;;;7.50;51.52
50977;BME280;36992;48.200;12.418;2024-02-26T01:15:34;95043.22;;;7.50;51.69
50977;BME280;36992;48.200;12.418;2024-02-26T01:18:01;95045.13;;;7.49;51.85
50977;BME280;36992;48.200;12.418;2024-02-26T01:20:27;95047.81;;;7.49;51.57
50977;BME280;36992;48.200;12.418;2024-02-26T01:22:54;95039.75;;;7.49;51.38
50977;BME280;36992;48.200;12.418;2024-02-26T01:25:20;95047.00;;;7.49;51.54
50977;BME280;36992;48.200;12.418;2024-02-26T01:27:48;95040.53;;;7.50;51.25
50977;BME280;36992;48.200;12.418;2024-02-26T01:30:15;95044.97;;;7.46;51.69
50977;BME280;36992;48.200;12.418;2024-02-26T01:32:42;95046.53;;;7.47;51.52
50977;BME280;36992;48.200;12.418;2024-02-26T01:35:09;95044.97;;;7.46;51.01
50977;BME280;36992;48.200;12.418;2024-02-26T01:37:37;95043.69;;;7.43;51.37
50977;BME280;36992;48.200;12.418;2024-02-26T01:40:05;95044.81;;;7.42;51.45
50977;BME280;36992;48.200;12.418;2024-02-26T01:42:32;95046.69;;;7.41;51.16
50977;BME280;36992;48.200;12.418;2024-02-26T01:45:00;95048.25;;;7.42;50.96
50977;BME280;36992;48.200;12.418;2024-02-26T01:47:28;95046.22;;;7.39;51.08
50977;BME280;36992;48.200;12.418;2024-02-26T01:49:54;95044.13;;;7.36;51.39
50977;BME280;36992;48.200;12.418;2024-02-26T01:52:21;95047.13;;;7.35;51.08
50977;BME280;36992;48.200;12.418;2024-02-26T01:54:48;95042.09;;;7.33;51.30
50977;BME280;36992;48.200;12.418;2024-02-26T01:57:16;95033.56;;;7.31;50.40
50977;BME280;36992;48.200;12.418;2024-02-26T01:59:43;95044.63;;;7.29;50.99
50977;BME280;36992;48.200;12.418;2024-02-26T02:02:11;95037.66;;;7.28;51.15
50977;BME280;36992;48.200;12.418;2024-02-26T02:04:39;95038.28;;;7.25;50.30
50977;BME280;36992;48.200;12.418;2024-02-26T02:07:05;95036.22;;;7.22;50.64
50977;BME280;36992;48.200;12.418;2024-02-26T02:09:32;95037.66;;;7.20;51.22
50977;BME280;36992;48.200;12.418;2024-02-26T02:11:59;95044.44;;;7.17;50.54
50977;BME280;36992;48.200;12.418;2024-02-26T02:14:26;95042.06;;;7.15;50.22
50977;BME280;36992;48.200;12.418;2024-02-26T02:16:53;95042.66;;;7.12;50.86
50977;BME280;36992;48.200;12.418;2024-02-26T02:19:21;95035.72;;;7.11;51.01
50977;BME280;36992;48.200;12.418;2024-02-26T02:21:49;95039.03;;;7.08;51.14
50977;BME280;36992;48.200;12.418;2024-02-26T02:24:15;95046.09;;;7.04;51.22
50977;BME280;36992;48.200;12.418;2024-02-26T02:26:42;95033.81;;;7.03;50.67
50977;BME280;36992;48.200;12.418;2024-02-26T02:29:08;95030.69;;;7.01;50.90
50977;BME280;36992;48.200;12.418;2024-02-26T02:31:35;95036.03;;;7.01;50.81
50977;BME280;36992;48.200;12.418;2024-02-26T02:34:02;95029.41;;;6.98;51.26
50977;BME280;36992;48.200;12.418;2024-02-26T02:36:29;95022.78;;;6.96;51.58
50977;BME280;36992;48.200;12.418;2024-02-26T02:38:57;95027.34;;;6.95;51.72
50977;BME280;36992;48.200;12.418;2024-02-26T02:41:23;95027.97;;;6.92;51.81
50977;BME280;36992;48.200;12.418;2024-02-26T02:43:51;95027.16;;;6.92;51.93
50977;BME280;36992;48.200;12.418;2024-02-26T02:46:18;95029.38;;;6.90;52.16
50977;BME280;36992;48.200;12.418;2024-02-26T02:48:45;95022.13;;;6.90;51.69
50977;BME280;36992;48.200;12.418;2024-02-26T02:51:11;95013.31;;;6.90;51.69
50977;BME280;36992;48.200;12.418;2024-02-26T02:53:38;95017.09;;;6.88;51.53
50977;BME280;36992;48.200;12.418;2024-02-26T02:56:06;95015.50;;;6.87;51.82
50977;BME280;36992;48.200;12.418;2024-02-26T02:58:32;95027.59;;;6.85;52.04
50977;BME280;36992;48.200;12.418;2024-02-26T03:00:59;95021.47;;;6.84;52.14
50977;BME280;36992;48.200;12.418;2024-02-26T03:03:26;95016.13;;;6.84;51.89
50977;BME280;36992;48.200;12.418;2024-02-26T03:05:54;95014.56;;;6.83;51.79
50977;BME280;36992;48.200;12.418;2024-02-26T03:08:20;95015.66;;;6.82;52.06
50977;BME280;36992;48.200;12.418;2024-02-26T03:10:47;95019.41;;;6.81;52.07
50977;BME280;36992;48.200;12.418;2024-02-26T03:13:14;95025.09;;;6.80;51.89
50977;BME280;36992;48.200;12.418;2024-02-26T03:15:41;95023.81;;;6.77;52.42
50977;BME280;36992;48.200;12.418;2024-02-26T03:18:08;95018.47;;;6.77;51.79
50977;BME280;36992;48.200;12.418;2024-02-26T03:20:34;95020.97;;;6.73;51.96
50977;BME280;36992;48.200;12.418;2024-02-26T03:23:02;95017.03;;;6.71;52.08
50977;BME280;36992;48.200;12.418;2024-02-26T03:25:29;95015.75;;;6.68;51.81
50977;BME280;36992;48.200;12.418;2024-02-26T03:27:55;95018.25;;;6.65;52.01
50977;BME280;36992;48.200;12.418;2024-02-26T03:30:22;95014.00;;;6.64;52.51
50977;BME280;36992;48.200;12.418;2024-02-26T03:32:48;95014.91;;;6.59;52.68
50977;BME280;36992;48.200;12.418;2024-02-26T03:35:15;95020.25;;;6.59;52.61
50977;BME280;36992;48.200;12.418;2024-02-26T03:37:41;95025.13;;;6.57;52.97
50977;BME280;36992;48.200;12.418;2024-02-26T03:40:09;95019.31;;;6.55;52.40
50977;BME280;36992;48.200;12.418;2024-02-26T03:42:38;95017.41;;;6.55;52.36
50977;BME280;36992;48.200;12.418;2024-02-26T03:45:05;95018.50;;;6.54;52.86
50977;BME280;36992;48.200;12.418;2024-02-26T03:47:33;95016.31;;;6.56;52.88
50977;BME280;36992;48.200;12.418;2024-02-26T03:50:00;95025.44;;;6.55;52.70
50977;BME280;36992;48.200;12.418;2024-02-26T03:52:26;95021.19;;;6.54;52.65
50977;BME280;36992;48.200;12.418;2024-02-26T03:54:53;95028.91;;;6.56;52.69
50977;BME280;36992;48.200;12.418;2024-02-26T03:57:19;95027.00;;;6.56;52.67
50977;BME280;36992;48.200;12.418;2024-02-26T03:59:46;95017.91;;;6.57;52.48
50977;BME280;36992;48.200;12.418;2024-02-26T04:02:12;95025.59;;;6.59;52.32
50977;BME280;36992;48.200;12.418;2024-02-26T04:04:40;95021.88;;;6.60;52.07
50977;BME280;36992;48.200;12.418;2024-02-26T04:07:07;95021.88;;;6.60;52.50
50977;BME280;36992;48.200;12.418;2024-02-26T04:09:33;95021.06;;;6.59;52.42
50977;BME280;36992;48.200;12.418;2024-02-26T04:12:00;95018.38;;;6.59;52.32
50977;BME280;36992;48.200;12.418;2024-02-26T04:14:27;95020.25;;;6.59;52.28
50977;BME280;36992;48.200;12.418;2024-02-26T04:16:53;95014.91;;;6.59;52.22
50977;BME280;36992;48.200;12.418;2024-02-26T04:19:20;95017.59;;;6.59;52.03
50977;BME280;36992;48.200;12.418;2024-02-26T04:21:48;95025.59;;;6.59;51.91
50977;BME280;36992;48.200;12.418;2024-02-26T04:24:14;95021.66;;;6.56;52.04
50977;BME280;36992;48.200;12.418;2024-02-26T04:26:41;95018.50;;;6.54;51.99
50977;BME280;36992;48.200;12.418;2024-02-26T04:29:07;95016.94;;;6.53;51.74
50977;BME280;36992;48.200;12.418;2024-02-26T04:31:34;95022.88;;;6.50;51.89
50977;BME280;36992;48.200;12.418;2024-02-26T04:34:00;95022.41;;;6.48;51.92
50977;BME280;36992;48.200;12.418;2024-02-26T04:36:27;95027.28;;;6.46;51.93
50977;BME280;36992;48.200;12.418;2024-02-26T04:38:55;95032.13;;;6.44;51.57
50977;BME280;36992;48.200;12.418;2024-02-26T04:41:21;95030.69;;;6.38;51.92
50977;BME280;36992;48.200;12.418;2024-02-26T04:43:48;95036.19;;;6.32;52.03
50977;BME280;36992;48.200;12.418;2024-02-26T04:46:14;95032.53;;;6.28;51.65
50977;BME280;36992;48.200;12.418;2024-02-26T04:48:41;95040.38;;;6.25;51.79
50977;BME280;36992;48.200;12.418;2024-02-26T04:51:08;95039.09;;;6.22;52.32
50977;BME280;36992;48.200;12.418;2024-02-26T04:53:34;95031.38;;;6.20;51.93
50977;BME280;36992;48.200;12.418;2024-02-26T04:56:02;95033.75;;;6.22;52.16
50977;BME280;36992;48.200;12.418;2024-02-26T04:58:29;95030.63;;;6.20;52.11
50977;BME280;36992;48.200;12.418;2024-02-26T05:00:55;95031.38;;;6.20;52.31
50977;BME280;36992;48.200;12.418;2024-02-26T05:03:22;95033.28;;;6.20;52.45
50977;BME280;36992;48.200;12.418;2024-02-26T05:05:48;95027.94;;;6.20;52.28
50977;BME280;36992;48.200;12.418;2024-02-26T05:08:15;95035.97;;;6.20;51.83
50977;BME280;36992;48.200;12.418;2024-02-26T05:10:41;95030.63;;;6.20;52.19
50977;BME280;36992;48.200;12.418;2024-02-26T05:13:10;95030.28;;;6.21;52.34
50977;BME280;36992;48.200;12.418;2024-02-26T05:15:36;95029.00;;;6.19;52.14
50977;BME280;36992;48.200;12.418;2024-02-26T05:18:03;95034.34;;;6.19;52.14
50977;BME280;36992;48.200;12.418;2024-02-26T05:20:30;95035.97;;;6.20;52.09
50977;BME280;36992;48.200;12.418;2024-02-26T05:23:00;95038.31;;;6.21;51.96
50977;BME280;36992;48.200;12.418;2024-02-26T05:25:26;95048.22;;;6.21;51.95
50977;BME280;36992;48.200;12.418;2024-02-26T05:27:53;95042.88;;;6.21;51.83
50977;BME280;36992;48.200;12.418;2024-02-26T05:30:21;95046.03;;;6.23;51.57
50977;BME280;36992;48.200;12.418;2024-02-26T05:32:47;95046.66;;;6.20;51.41
50977;BME280;36992;48.200;12.418;2024-02-26T05:35:14;95043.47;;;6.18;51.46
50977;BME280;36992;48.200;12.418;2024-02-26T05:37:41;95038.13;;;6.18;51.63
50977;BME280;36992;48.200;12.418;2024-02-26T05:40:08;95043.00;;;6.16;51.81
50977;BME280;36992;48.200;12.418;2024-02-26T05:42:35;95040.31;;;6.16;51.83
50977;BME280;36992;48.200;12.418;2024-02-26T05:45:01;95049.44;;;6.15;52.09
50977;BME280;36992;48.200;12.418;2024-02-26T05:47:32;95053.69;;;6.16;51.90
50977;BME280;36992;48.200;12.418;2024-02-26T05:49:59;95052.13;;;6.15;51.89
50977;BME280;36992;48.200;12.418;2024-02-26T05:52:26;95050.53;;;6.14;52.10
50977;BME280;36992;48.200;12.418;2024-02-26T05:54:52;95052.41;;;6.13;51.59
50977;BME280;36992;48.200;12.418;2024-02-26T05:57:19;95044.69;;;6.12;51.53
50977;BME280;36992;48.200;12.418;2024-02-26T05:59:46;95053.03;;;6.10;52.07
50977;BME280;36992;48.200;12.418;2024-02-26T06:02:13;95045.31;;;6.09;51.56
50977;BME280;36992;48.200;12.418;2024-02-26T06:04:41;95052.25;;;6.10;51.51
50977;BME280;36992;48.200;12.418;2024-02-26T06:07:07;95056.59;;;6.05;51.75
50977;BME280;36992;48.200;12.418;2024-02-26T06:09:33;95053.44;;;6.03;51.35
50977;BME280;36992;48.200;12.418;2024-02-26T06:12:00;95054.00;;;6.00;51.24
50977;BME280;36992;48.200;12.418;2024-02-26T06:14:26;95063.47;;;5.98;51.16
50977;BME280;36992;48.200;12.418;2024-02-26T06:16:53;95071.25;;;5.94;51.04
50977;BME280;36992;48.200;12.418;2024-02-26T06:19:19;95071.88;;;5.91;51.04
50977;BME280;36992;48.200;12.418;2024-02-26T06:21:47;95069.78;;;5.88;51.42
50977;BME280;36992;48.200;12.418;2024-02-26T06:24:14;95071.50;;;5.84;51.56
50977;BME280;36992;48.200;12.418;2024-02-26T06:26:40;95073.69;;;5.81;51.95
50977;BME280;36992;48.200;12.418;2024-02-26T06:29:07;95081.69;;;5.81;51.83
50977;BME280;36992;48.200;12.418;2024-02-26T06:31:33;95079.03;;;5.81;52.30
50977;BME280;36992;48.200;12.418;2024-02-26T06:34:00;95085.97;;;5.83;52.40
50977;BME280;36992;48.200;12.418;2024-02-26T06:36:26;95087.53;;;5.84;52.46
50977;BME280;36992;48.200;12.418;2024-02-26T06:38:54;95088.50;;;5.88;52.22
50977;BME280;36992;48.200;12.418;2024-02-26T06:41:21;95088.50;;;5.88;52.16
50977;BME280;36992;48.200;12.418;2024-02-26T06:43:52;95086.34;;;5.90;52.26
50977;BME280;36992;48.200;12.418;2024-02-26T06:46:18;95078.03;;;5.91;52.13
50977;BME280;36992;48.200;12.418;2024-02-26T06:48:45;95075.03;;;5.93;52.11
50977;BME280;36992;48.200;12.418;2024-02-26T06:51:11;95078.22;;;5.95;52.24
50977;BME280;36992;48.200;12.418;2024-02-26T06:53:38;95079.78;;;5.96;52.18
50977;BME280;36992;48.200;12.418;2024-02-26T06:56:06;95086.09;;;6.00;51.58
50977;BME280;36992;48.200;12.418;2024-02-26T06:58:32;95086.72;;;5.97;52.11
50977;BME280;36992;48.200;12.418;2024-02-26T07:00:59;95086.72;;;5.97;52.00
50977;BME280;36992;48.200;12.418;2024-02-26T07:03:25;95088.28;;;5.98;51.64
50977;BME280;36992;48.200;12.418;2024-02-26T07:05:52;95092.06;;;5.97;51.73
50977;BME280;36992;48.200;12.418;2024-02-26T07:08:18;95103.03;;;5.96;52.24
50977;BME280;36992;48.200;12.418;2024-02-26T07:10:46;95101.75;;;5.93;52.45
50977;BME280;36992;48.200;12.418;2024-02-26T07:13:13;95099.59;;;5.95;52.09
50977;BME280;36992;48.200;12.418;2024-02-26T07:15:40;95096.41;;;5.93;52.75
50977;BME280;36992;48.200;12.418;2024-02-26T07:18:07;95101.75;;;5.93;52.63
50977;BME280;36992;48.200;12.418;2024-02-26T07:20:33;95109.19;;;5.96;52.54
50977;BME280;36992;48.200;12.418;2024-02-26T07:23:00;95106.53;;;5.96;52.84
50977;BME280;36992;48.200;12.418;2024-02-26T07:25:26;95113.44;;;5.97;52.90
50977;BME280;36992;48.200;12.418;2024-02-26T07:27:53;95113.44;;;5.97;53.14
50977;BME280;36992;48.200;12.418;2024-02-26T07:30:21;95113.34;;;6.02;53.28
50977;BME280;36992;48.200;12.418;2024-02-26T07:32:47;95113.84;;;6.04;53.17
50977;BME280;36992;48.200;12.418;2024-02-26T07:35:13;95117.78;;;6.07;53.18
50977;BME280;36992;48.200;12.418;2024-02-26T07:37:40;95106.50;;;6.10;53.11
50977;BME280;36992;48.200;12.418;2024-02-26T07:40:08;95112.81;;;6.14;53.19
50977;BME280;36992;48.200;12.418;2024-02-26T07:42:34;95109.56;;;6.17;53.02
50977;BME280;36992;48.200;12.418;2024-02-26T07:45:01;95118.53;;;6.21;52.80
50977;BME280;36992;48.200;12.418;2024-02-26T07:47:29;95124.06;;;6.25;52.65
50977;BME280;36992;48.200;12.418;2024-02-26T07:49:56;95129.91;;;6.27;52.65
50977;BME280;36992;48.200;12.418;2024-02-26T07:52:23;95133.38;;;6.28;52.73
50977;BME280;36992;48.200;12.418;2024-02-26T07:54:49;95138.72;;;6.28;52.71
50977;BME280;36992;48.200;12.418;2024-02-26T07:57:16;95140.31;;;6.29;52.96
50977;BME280;36992;48.200;12.418;2024-02-26T07:59:42;95133.06;;;6.29;53.07
50977;BME280;36992;48.200;12.418;2024-02-26T08:02:10;95128.00;;;6.28;52.91
50977;BME280;36992;48.200;12.418;2024-02-26T08:04:37;95137.31;;;6.30;52.85
50977;BME280;36992;48.200;12.418;2024-02-26T08:07:05;95131.19;;;6.30;53.09
50977;BME280;36992;48.200;12.418;2024-02-26T08:09:32;95130.38;;;6.29;53.29
50977;BME280;36992;48.200;12.418;2024-02-26T08:11:58;95128.53;;;6.30;52.90
50977;BME280;36992;48.200;12.418;2024-02-26T08:14:25;95131.97;;;6.30;53.36
50977;BME280;36992;48.200;12.418;2024-02-26T08:16:51;95140.50;;;6.32;53.36
50977;BME280;36992;48.200;12.418;2024-02-26T08:19:18;95143.03;;;6.38;53.19
50977;BME280;36992;48.200;12.418;2024-02-26T08:21:46;95136.47;;;6.44;52.60
50977;BME280;36992;48.200;12.418;2024-02-26T08:24:12;95145.78;;;6.46;52.75
50977;BME280;36992;48.200;12.418;2024-02-26T08:26:38;95146.94;;;6.54;52.25
50977;BME280;36992;48.200;12.418;2024-02-26T08:29:05;95140.47;;;6.55;52.57
50977;BME280;36992;48.200;12.418;2024-02-26T08:31:31;95141.75;;;6.58;52.62
50977;BME280;36992;48.200;12.418;2024-02-26T08:33:58;95137.38;;;6.62;52.50
50977;BME280;36992;48.200;12.418;2024-02-26T08:36:25;95136.47;;;6.67;52.84
50977;BME280;36992;48.200;12.418;2024-02-26T08:38:53;95142.47;;;6.72;52.73
50977;BME280;36992;48.200;12.418;2024-02-26T08:41:20;95141.56;;;6.77;52.74
50977;BME280;36992;48.200;12.418;2024-02-26T08:43:46;95146.81;;;6.82;52.37
50977;BME280;36992;48.200;12.418;2024-02-26T08:46:13;95156.28;;;6.88;52.00
50977;BME280;36992;48.200;12.418;2024-02-26T08:48:39;95161.03;;;6.92;51.36
50977;BME280;36992;48.200;12.418;2024-02-26T08:51:06;95157.41;;;6.96;51.40
50977;BME280;36992;48.200;12.418;2024-02-26T08:53:33;95154.75;;;6.96;51.72
50977;BME280;36992;48.200;12.418;2024-02-26T08:56:01;95150.66;;;6.99;51.82
50977;BME280;36992;48.200;12.418;2024-02-26T08:58:28;95142.16;;;6.97;52.17
50977;BME280;36992;48.200;12.418;2024-02-26T09:00:54;95139.94;;;6.99;51.98
50977;BME280;36992;48.200;12.418;2024-02-26T09:03:21;95132.09;;;7.02;52.01
50977;BME280;36992;48.200;12.418;2024-02-26T09:05:48;95136.53;;;7.07;51.69
50977;BME280;36992;48.200;12.418;2024-02-26T09:08:14;95138.41;;;7.07;51.97
50977;BME280;36992;48.200;12.418;2024-02-26T09:10:41;95145.06;;;7.09;52.18
50977;BME280;36992;48.200;12.418;2024-02-26T09:13:09;95144.41;;;7.12;52.52
50977;BME280;36992;48.200;12.418;2024-02-26T09:15:36;95151.84;;;7.15;51.87
50977;BME280;36992;48.200;12.418;2024-02-26T09:18:02;95157.38;;;7.19;52.19
50977;BME280;36992;48.200;12.418;2024-02-26T09:20:29;95155.50;;;7.20;52.70
50977;BME280;36992;48.200;12.418;2024-02-26T09:22:56;95154.41;;;7.21;52.63
50977;BME280;36992;48.200;12.418;2024-02-26T09:25:22;95151.88;;;7.24;52.52
50977;BME280;36992;48.200;12.418;2024-02-26T09:27:48;95143.56;;;7.26;52.82
50977;BME280;36992;48.200;12.418;2024-02-26T09:30:17;95141.81;;;7.30;52.80
50977;BME280;36992;48.200;12.418;2024-02-26T09:32:46;95150.03;;;7.34;52.92
50977;BME280;36992;48.200;12.418;2024-02-26T09:35:13;95149.72;;;7.35;53.03
50977;BME280;36992;48.200;12.418;2024-02-26T09:37:39;95150.69;;;7.39;53.27
50977;BME280;36992;48.200;12.418;2024-02-26T09:40:08;95147.88;;;7.45;53.14
50977;BME280;36992;48.200;12.418;2024-02-26T09:42:37;95150.72;;;7.48;53.31
50977;BME280;36992;48.200;12.418;2024-02-26T09:45:10;95149.16;;;7.56;53.21
50977;BME280;36992;48.200;12.418;2024-02-26T09:47:39;95152.81;;;7.60;53.28
50977;BME280;36992;48.200;12.418;2024-02-26T09:50:09;95159.13;;;7.64;53.03
50977;BME280;36992;48.200;12.418;2024-02-26T09:52:38;95163.06;;;7.67;53.16
50977;BME280;36992;48.200;12.418;2024-02-26T09:55:05;95172.38;;;7.69;53.30
50977;BME280;36992;48.200;12.418;2024-02-26T09:57:31;95173.03;;;7.75;53.19
50977;BME280;36992;48.200;12.418;2024-02-26T09:59:59;95169.41;;;7.80;53.26
50977;BME280;36992;48.200;12.418;2024-02-26T10:02:30;95170.53;;;7.88;53.01
50977;BME280;36992;48.200;12.418;2024-02-26T10:04:59;95170.38;;;7.93;52.92
50977;BME280;36992;48.200;12.418;2024-02-26T10:07:30;95170.69;;;7.91;53.28
50977;BME280;36992;48.200;12.418;2024-02-26T10:09:58;95165.78;;;7.93;53.45
50977;BME280;36992;48.200;12.418;2024-02-26T10:12:25;95169.13;;;7.99;53.11
50977;BME280;36992;48.200;12.418;2024-02-26T10:14:53;95159.69;;;8.02;53.05
50977;BME280;36992;48.200;12.418;2024-02-26T10:17:20;95164.09;;;8.06;52.95
50977;BME280;36992;48.200;12.418;2024-02-26T10:19:46;95167.41;;;8.12;52.69
50977;BME280;36992;48.200;12.418;2024-02-26T10:22:14;95164.56;;;8.17;52.78
50977;BME280;36992;48.200;12.418;2024-02-26T10:24:40;95170.09;;;8.21;52.65
50977;BME280;36992;48.200;12.418;2024-02-26T10:27:08;95161.91;;;8.26;52.77
50977;BME280;36992;48.200;12.418;2024-02-26T10:29:34;95166.31;;;8.31;52.31
50977;BME280;36992;48.200;12.418;2024-02-26T10:32:01;95160.03;;;8.35;52.45
50977;BME280;36992;48.200;12.418;2024-02-26T10:34:28;95169.50;;;8.42;52.01
50977;BME280;36992;48.200;12.418;2024-02-26T10:36:54;95166.63;;;8.47;52.08
50977;BME280;36992;48.200;12.418;2024-02-26T10:39:22;95157.03;;;8.55;51.39
50977;BME280;36992;48.200;12.418;2024-02-26T10:41:49;95167.16;;;8.58;51.32
50977;BME280;36992;48.200;12.418;2024-02-26T10:44:16;95172.31;;;8.63;51.11
50977;BME280;36992;48.200;12.418;2024-02-26T10:46:42;95167.44;;;8.65;51.24
50977;BME280;36992;48.200;12.418;2024-02-26T10:49:13;95165.06;;;8.72;51.16
50977;BME280;36992;48.200;12.418;2024-02-26T10:51:44;95169.03;;;8.75;50.86
50977;BME280;36992;48.200;12.418;2024-02-26T10:54:14;95166.47;;;8.79;51.15
50977;BME280;36992;48.200;12.418;2024-02-26T10:56:43;95168.22;;;8.83;50.61
50977;BME280;36992;48.200;12.418;2024-02-26T10:59:11;95163.63;;;8.84;49.81
50977;BME280;36992;48.200;12.418;2024-02-26T11:01:39;95163.94;;;8.91;50.62
50977;BME280;36992;48.200;12.418;2024-02-26T11:04:06;95161.72;;;8.93;50.96
50977;BME280;36992;48.200;12.418;2024-02-26T11:06:34;95151.91;;;8.97;50.43
50977;BME280;36992;48.200;12.418;2024-02-26T11:09:02;95143.19;;;9.00;50.46
50977;BME280;36992;48.200;12.418;2024-02-26T11:11:29;95141.47;;;9.04;50.99
50977;BME280;36992;48.200;12.418;2024-02-26T11:13:58;95143.31;;;9.13;51.07
50977;BME280;36992;48.200;12.418;2024-02-26T11:16:27;95141.13;;;9.15;50.97
50977;BME280;36992;48.200;12.418;2024-02-26T11:18:55;95152.78;;;9.19;51.28
50977;BME280;36992;48.200;12.418;2024-02-26T11:21:23;95158.34;;;9.23;51.42
50977;BME280;36992;48.200;12.418;2024-02-26T11:23:55;95154.38;;;9.29;50.97
50977;BME280;36992;48.200;12.418;2024-02-26T11:26:23;95157.00;;;9.38;50.52
50977;BME280;36992;48.200;12.418;2024-02-26T11:28:51;95149.41;;;9.40;50.47
50977;BME280;36992;48.200;12.418;2024-02-26T11:31:19;95138.31;;;9.41;50.37
50977;BME280;36992;48.200;12.418;2024-02-26T11:33:52;95138.50;;;9.45;50.17
50977;BME280;36992;48.200;12.418;2024-02-26T11:36:19;95130.22;;;9.50;50.11
50977;BME280;36992;48.200;12.418;2024-02-26T11:38:46;95134.97;;;9.53;50.63
50977;BME280;36992;48.200;12.418;2024-02-26T11:41:17;95129.72;;;9.57;50.37
50977;BME280;36992;48.200;12.418;2024-02-26T11:43:50;95119.25;;;9.64;50.42
50977;BME280;36992;48.200;12.418;2024-02-26T11:46:28;95119.84;;;9.70;50.30
50977;BME280;36992;48.200;12.418;2024-02-26T11:48:58;95118.75;;;9.71;50.27
50977;BME280;36992;48.200;12.418;2024-02-26T11:51:25;95123.47;;;9.74;50.06
50977;BME280;36992;48.200;12.418;2024-02-26T11:53:52;95115.88;;;9.76;49.75
50977;BME280;36992;48.200;12.418;2024-02-26T11:56:23;95117.72;;;9.84;50.35
50977;BME280;36992;48.200;12.418;2024-02-26T11:58:57;95124.47;;;9.91;50.54
50977;BME280;36992;48.200;12.418;2024-02-26T12:01:42;95116.97;;;9.96;50.59
50977;BME280;36992;48.200;12.418;2024-02-26T12:04:13;95132.81;;;9.98;50.38
50977;BME280;36992;48.200;12.418;2024-02-26T12:06:50;95127.69;;;10.05;50.24
50977;BME280;36992;48.200;12.418;2024-02-26T12:09:38;95123.25;;;10.09;50.23
50977;BME280;36992;48.200;12.418;2024-02-26T12:12:07;95122.00;;;10.07;50.46
50977;BME280;36992;48.200;12.418;2024-02-26T12:14:34;95110.56;;;10.10;50.48
50977;BME280;36992;48.200;12.418;2024-02-26T12:17:03;95120.81;;;10.17;50.38
50977;BME280;36992;48.200;12.418;2024-02-26T12:19:32;95117.91;;;10.22;50.56
50977;BME280;36992;48.200;12.418;2024-02-26T12:21:58;95115.34;;;10.25;50.26
50977;BME280;36992;48.200;12.418;2024-02-26T12:24:25;95118.31;;;10.33;49.97
50977;BME280;36992;48.200;12.418;2024-02-26T12:26:51;95117.31;;;10.37;49.97
50977;BME280;36992;48.200;12.418;2024-02-26T12:29:18;95121.41;;;10.44;49.82
50977;BME280;36992;48.200;12.418;2024-02-26T12:31:45;95120.09;;;10.50;49.59
50977;BME280;36992;48.200;12.418;2024-02-26T12:34:13;95115.28;;;10.56;49.50
50977;BME280;36992;48.200;12.418;2024-02-26T12:36:39;95123.16;;;10.61;49.35
50977;BME280;36992;48.200;12.418;2024-02-26T12:39:07;95123.06;;;10.70;48.78
50977;BME280;36992;48.200;12.418;2024-02-26T12:41:34;95133.00;;;10.78;48.47
50977;BME280;36992;48.200;12.418;2024-02-26T12:44:01;95136.25;;;10.84;48.38
50977;BME280;36992;48.200;12.418;2024-02-26T12:46:27;95129.19;;;10.91;48.15
50977;BME280;36992;48.200;12.418;2024-02-26T12:48:55;95135.28;;;11.01;48.51
50977;BME280;36992;48.200;12.418;2024-02-26T12:51:25;95138.00;;;11.13;48.12
50977;BME280;36992;48.200;12.418;2024-02-26T12:53:52;95134.66;;;11.16;47.25
50977;BME280;36992;48.200;12.418;2024-02-26T12:56:19;95127.13;;;11.22;47.29
50977;BME280;36992;48.200;12.418;2024-02-26T12:58:46;95125.78;;;11.28;47.36
50977;BME280;36992;48.200;12.418;2024-02-26T13:01:14;95126.81;;;11.36;46.58